sensor_id;sensor_type;location;lat;lon;timestamp;pressure;altitude;pressure_sealevel;temperature;humidity
77725;BME280;66892;53.236;6.550;2023-07-20T00:01:58;101487.25;;;14.52;100.00
77725;BME280;66892;53.236;6.550;2023-07-20T00:04:25;101496.16;;;14.48;100.00
77725;BME280;66892;53.236;6.550;2023-07-20T00:06:51;101490.84;;;14.47;100.00
77725;BME280;66892;53.236;6.550;2023-07-20T00:09:18;101492.63;;;14.46;100.00
77725;BME280;66892;53.236;6.550;2023-07-20T00:11:49;101488.22;;;14.44;100.00
77725;BME280;66892;53.236;6.550;2023-07-20T00:14:17;101488.25;;;14.39;100.00
77725;BME280;66892;53.236;6.550;2023-07-20T00:16:45;101493.56;;;14.39;100.00
77725;BME280;66892;53.236;6.550;2023-07-20T00:19:12;101490.97;;;14.35;100.00
77725;BME280;66892;53.236;6.550;2023-07-20T00:21:38;101491.84;;;14.31;100.00
77725;BME280;66892;53.236;6.550;2023-07-20T00:24:06;101496.31;;;14.29;100.00
77725;BME280;66892;53.236;6.550;2023-07-20T00:26:34;101497.19;;;14.26;100.00
77725;BME280;66892;53.236;6.550;2023-07-20T00:29:00;101506.09;;;14.20;100.00
77725;BME280;66892;53.236;6.550;2023-07-20T00:31:26;101504.38;;;14.13;100.00
77725;BME280;66892;53.236;6.550;2023-07-20T00:33:52;101504.44;;;14.07;100.00
77725;BME280;66892;53.236;6.550;2023-07-20T00:36:18;101500.03;;;14.00;100.00
77725;BME280;66892;53.236;6.550;2023-07-20T00:38:44;101497.44;;;13.93;100.00
77725;BME280;66892;53.236;6.550;2023-07-20T00:41:11;101502.78;;;13.88;100.00
77725;BME280;66892;53.236;6.550;2023-07-20T00:43:38;101494.88;;;13.79;100.00
77725;BME280;66892;53.236;6.550;2023-07-20T00:46:04;101500.25;;;13.65;100.00
77725;BME280;66892;53.236;6.550;2023-07-20T00:48:31;101503.91;;;13.51;100.00
77725;BME280;66892;53.236;6.550;2023-07-20T00:50:58;101500.41;;;13.38;100.00
77725;BME280;66892;53.236;6.550;2023-07-20T00:53:25;101492.47;;;13.26;100.00
77725;BME280;66892;53.236;6.550;2023-07-20T00:55:52;101500.50;;;13.12;100.00
77725;BME280;66892;53.236;6.550;2023-07-20T00:58:18;101504.91;;;13.06;100.00
77725;BME280;66892;53.236;6.550;2023-07-20T01:00:45;101496.97;;;12.95;100.00
77725;BME280;66892;53.236;6.550;2023-07-20T01:03:13;101496.13;;;12.84;100.00
77725;BME280;66892;53.236;6.550;2023-07-20T01:05:45;101494.38;;;12.77;100.00
77725;BME280;66892;53.236;6.550;2023-07-20T01:08:18;101501.44;;;12.66;100.00
77725;BME280;66892;53.236;6.550;2023-07-20T01:10:54;101495.28;;;12.61;100.00
77725;BME280;66892;53.236;6.550;2023-07-20T01:13:23;101501.47;;;12.54;100.00
77725;BME280;66892;53.236;6.550;2023-07-20T01:15:56;101495.28;;;12.52;100.00
77725;BME280;66892;53.236;6.550;2023-07-20T01:18:22;101498.84;;;12.45;100.00
77725;BME280;66892;53.236;6.550;2023-07-20T01:20:48;101503.25;;;12.41;100.00
77725;BME280;66892;53.236;6.550;2023-07-20T01:23:28;101493.53;;;12.36;100.00
77725;BME280;66892;53.236;6.550;2023-07-20T01:26:08;101495.31;;;12.29;100.00
77725;BME280;66892;53.236;6.550;2023-07-20T01:28:48;101504.13;;;12.21;100.00
77725;BME280;66892;53.236;6.550;2023-07-20T01:31:24;101495.28;;;12.15;100.00
77725;BME280;66892;53.236;6.550;2023-07-20T01:33:52;101496.16;;;12.24;100.00
77725;BME280;66892;53.236;6.550;2023-07-20T01:36:21;101489.09;;;12.15;100.00
77725;BME280;66892;53.236;6.550;2023-07-20T01:38:49;101497.94;;;12.06;100.00
77725;BME280;66892;53.236;6.550;2023-07-20T01:41:16;101497.91;;;12.05;100.00
77725;BME280;66892;53.236;6.550;2023-07-20T01:43:42;101498.81;;;11.96;100.00
77725;BME280;66892;53.236;6.550;2023-07-20T01:46:09;101497.03;;;11.89;100.00
77725;BME280;66892;53.236;6.550;2023-07-20T01:48:36;101497.91;;;11.81;100.00
77725;BME280;66892;53.236;6.550;2023-07-20T01:51:02;101489.03;;;11.71;100.00
77725;BME280;66892;53.236;6.550;2023-07-20T01:53:28;101489.00;;;11.65;100.00
77725;BME280;66892;53.236;6.550;2023-07-20T01:55:54;101490.72;;;11.57;100.00
77725;BME280;66892;53.236;6.550;2023-07-20T01:58:21;101497.78;;;11.52;100.00
77725;BME280;66892;53.236;6.550;2023-07-20T02:00:47;101491.59;;;11.48;100.00
77725;BME280;66892;53.236;6.550;2023-07-20T02:03:13;101489.84;;;11.55;100.00
77725;BME280;66892;53.236;6.550;2023-07-20T02:05:42;101490.75;;;11.55;100.00
77725;BME280;66892;53.236;6.550;2023-07-20T02:08:08;101492.47;;;11.53;100.00
77725;BME280;66892;53.236;6.550;2023-07-20T02:10:34;101495.97;;;11.46;100.00
77725;BME280;66892;53.236;6.550;2023-07-20T02:13:00;101495.09;;;11.38;100.00
77725;BME280;66892;53.236;6.550;2023-07-20T02:15:26;101493.31;;;11.36;100.00
77725;BME280;66892;53.236;6.550;2023-07-20T02:17:53;101493.31;;;11.39;100.00
77725;BME280;66892;53.236;6.550;2023-07-20T02:20:19;101492.44;;;11.38;100.00
77725;BME280;66892;53.236;6.550;2023-07-20T02:22:47;101495.06;;;11.34;100.00
77725;BME280;66892;53.236;6.550;2023-07-20T02:25:13;101503.88;;;11.28;100.00
77725;BME280;66892;53.236;6.550;2023-07-20T02:27:39;101499.41;;;11.20;100.00
77725;BME280;66892;53.236;6.550;2023-07-20T02:30:06;101500.25;;;11.11;100.00
77725;BME280;66892;53.236;6.550;2023-07-20T02:32:33;101499.38;;;11.10;100.00
77725;BME280;66892;53.236;6.550;2023-07-20T02:35:00;101497.59;;;11.06;100.00
77725;BME280;66892;53.236;6.550;2023-07-20T02:37:26;101495.84;;;11.07;100.00
77725;BME280;66892;53.236;6.550;2023-07-20T02:39:53;101493.13;;;10.99;100.00
77725;BME280;66892;53.236;6.550;2023-07-20T02:42:19;101504.63;;;11.00;100.00
77725;BME280;66892;53.236;6.550;2023-07-20T02:44:48;101505.47;;;10.96;100.00
77725;BME280;66892;53.236;6.550;2023-07-20T02:47:15;101497.53;;;10.96;100.00
77725;BME280;66892;53.236;6.550;2023-07-20T02:49:41;101502.84;;;10.97;100.00
77725;BME280;66892;53.236;6.550;2023-07-20T02:52:08;101503.69;;;10.93;100.00
77725;BME280;66892;53.236;6.550;2023-07-20T02:54:34;101504.56;;;10.88;100.00
77725;BME280;66892;53.236;6.550;2023-07-20T02:57:01;101505.38;;;10.82;100.00
77725;BME280;66892;53.236;6.550;2023-07-20T02:59:27;101506.25;;;10.78;100.00
77725;BME280;66892;53.236;6.550;2023-07-20T03:01:55;101505.34;;;10.75;100.00
77725;BME280;66892;53.236;6.550;2023-07-20T03:04:21;101509.75;;;10.74;100.00
77725;BME280;66892;53.236;6.550;2023-07-20T03:06:47;101505.25;;;10.64;100.00
77725;BME280;66892;53.236;6.550;2023-07-20T03:09:13;101510.50;;;10.59;100.00
77725;BME280;66892;53.236;6.550;2023-07-20T03:11:39;101505.22;;;10.58;100.00
77725;BME280;66892;53.236;6.550;2023-07-20T03:14:07;101511.41;;;10.58;100.00
77725;BME280;66892;53.236;6.550;2023-07-20T03:16:33;101513.16;;;10.59;100.00
77725;BME280;66892;53.236;6.550;2023-07-20T03:18:59;101514.91;;;10.57;100.00
77725;BME280;66892;53.236;6.550;2023-07-20T03:21:26;101510.47;;;10.53;100.00
77725;BME280;66892;53.236;6.550;2023-07-20T03:23:52;101518.41;;;10.52;100.00
77725;BME280;66892;53.236;6.550;2023-07-20T03:26:19;101514.88;;;10.54;100.00
77725;BME280;66892;53.236;6.550;2023-07-20T03:28:45;101514.00;;;10.54;100.00
77725;BME280;66892;53.236;6.550;2023-07-20T03:31:13;101511.38;;;10.52;100.00
77725;BME280;66892;53.236;6.550;2023-07-20T03:33:40;101508.69;;;10.51;100.00
77725;BME280;66892;53.236;6.550;2023-07-20T03:36:06;101525.41;;;10.47;100.00
77725;BME280;66892;53.236;6.550;2023-07-20T03:38:33;101522.72;;;10.41;100.00
77725;BME280;66892;53.236;6.550;2023-07-20T03:41:00;101515.66;;;10.41;100.00
77725;BME280;66892;53.236;6.550;2023-07-20T03:43:27;101521.84;;;10.42;100.00
77725;BME280;66892;53.236;6.550;2023-07-20T03:45:53;101517.44;;;10.42;100.00
77725;BME280;66892;53.236;6.550;2023-07-20T03:48:22;101514.84;;;10.50;100.00
77725;BME280;66892;53.236;6.550;2023-07-20T03:50:50;101511.38;;;10.52;100.00
77725;BME280;66892;53.236;6.550;2023-07-20T03:53:17;101513.16;;;10.59;100.00
77725;BME280;66892;53.236;6.550;2023-07-20T03:55:44;101518.50;;;10.66;100.00
77725;BME280;66892;53.236;6.550;2023-07-20T03:58:12;101515.00;;;10.68;100.00
77725;BME280;66892;53.236;6.550;2023-07-20T04:00:38;101517.63;;;10.70;100.00
77725;BME280;66892;53.236;6.550;2023-07-20T04:03:04;101513.25;;;10.73;100.00
77725;BME280;66892;53.236;6.550;2023-07-20T04:05:31;101519.50;;;10.83;100.00
77725;BME280;66892;53.236;6.550;2023-07-20T04:07:58;101514.31;;;10.98;100.00
77725;BME280;66892;53.236;6.550;2023-07-20T04:10:24;101517.91;;;11.15;100.00
77725;BME280;66892;53.236;6.550;2023-07-20T04:12:50;101522.41;;;11.30;100.00
77725;BME280;66892;53.236;6.550;2023-07-20T04:15:16;101519.78;;;11.40;100.00
77725;BME280;66892;53.236;6.550;2023-07-20T04:17:42;101524.22;;;11.38;100.00
77725;BME280;66892;53.236;6.550;2023-07-20T04:20:09;101523.34;;;11.41;100.00
77725;BME280;66892;53.236;6.550;2023-07-20T04:22:36;101531.31;;;11.47;100.00
77725;BME280;66892;53.236;6.550;2023-07-20T04:25:03;101535.78;;;11.55;100.00
77725;BME280;66892;53.236;6.550;2023-07-20T04:27:29;101543.72;;;11.60;100.00
77725;BME280;66892;53.236;6.550;2023-07-20T04:29:55;101541.97;;;11.59;100.00
77725;BME280;66892;53.236;6.550;2023-07-20T04:32:21;101541.06;;;11.58;100.00
77725;BME280;66892;53.236;6.550;2023-07-20T04:34:48;101534.00;;;11.54;100.00
77725;BME280;66892;53.236;6.550;2023-07-20T04:37:14;101534.84;;;11.53;100.00
77725;BME280;66892;53.236;6.550;2023-07-20T04:39:41;101538.44;;;11.66;100.00
77725;BME280;66892;53.236;6.550;2023-07-20T04:42:07;101538.50;;;11.74;100.00
77725;BME280;66892;53.236;6.550;2023-07-20T04:44:33;101535.78;;;11.69;100.00
77725;BME280;66892;53.236;6.550;2023-07-20T04:46:59;101542.84;;;11.64;100.00
77725;BME280;66892;53.236;6.550;2023-07-20T04:49:25;101555.22;;;11.70;100.00
77725;BME280;66892;53.236;6.550;2023-07-20T04:51:51;101550.88;;;11.82;100.00
77725;BME280;66892;53.236;6.550;2023-07-20T04:54:17;101550.06;;;11.97;100.00
77725;BME280;66892;53.236;6.550;2023-07-20T04:56:46;101547.41;;;12.06;100.00
77725;BME280;66892;53.236;6.550;2023-07-20T04:59:12;101555.38;;;12.15;100.00
77725;BME280;66892;53.236;6.550;2023-07-20T05:01:38;101552.75;;;12.24;100.00
77725;BME280;66892;53.236;6.550;2023-07-20T05:04:04;101556.31;;;12.38;100.00
77725;BME280;66892;53.236;6.550;2023-07-20T05:06:30;101561.63;;;12.55;100.00
77725;BME280;66892;53.236;6.550;2023-07-20T05:08:56;101554.41;;;13.36;100.00
77725;BME280;66892;53.236;6.550;2023-07-20T05:11:23;101553.63;;;14.72;100.00
77725;BME280;66892;53.236;6.550;2023-07-20T05:13:50;101557.00;;;15.71;99.11
77725;BME280;66892;53.236;6.550;2023-07-20T05:16:16;101547.66;;;16.61;100.00
77725;BME280;66892;53.236;6.550;2023-07-20T05:18:43;101554.44;;;17.27;96.21
77725;BME280;66892;53.236;6.550;2023-07-20T05:21:09;101552.00;;;18.03;93.42
77725;BME280;66892;53.236;6.550;2023-07-20T05:23:35;101542.66;;;18.59;89.98
77725;BME280;66892;53.236;6.550;2023-07-20T05:26:01;101551.19;;;19.08;87.00
77725;BME280;66892;53.236;6.550;2023-07-20T05:28:27;101545.75;;;19.43;79.75
77725;BME280;66892;53.236;6.550;2023-07-20T05:30:55;101555.44;;;19.78;80.03
77725;BME280;66892;53.236;6.550;2023-07-20T05:33:21;101547.16;;;20.15;79.79
77725;BME280;66892;53.236;6.550;2023-07-20T05:35:48;101551.06;;;20.61;75.49
77725;BME280;66892;53.236;6.550;2023-07-20T05:38:14;101550.44;;;21.05;74.17
77725;BME280;66892;53.236;6.550;2023-07-20T05:40:41;101554.22;;;21.49;73.22
77725;BME280;66892;53.236;6.550;2023-07-20T05:43:08;101544.75;;;21.85;69.17
77725;BME280;66892;53.236;6.550;2023-07-20T05:45:34;101548.16;;;22.14;66.45
77725;BME280;66892;53.236;6.550;2023-07-20T05:48:02;101539.19;;;22.35;63.67
77725;BME280;66892;53.236;6.550;2023-07-20T05:50:28;101543.38;;;22.64;58.57
77725;BME280;66892;53.236;6.550;2023-07-20T05:52:54;101543.06;;;22.93;59.39
77725;BME280;66892;53.236;6.550;2023-07-20T05:55:20;101540.03;;;23.21;54.76
77725;BME280;66892;53.236;6.550;2023-07-20T05:57:47;101542.13;;;23.54;52.87
77725;BME280;66892;53.236;6.550;2023-07-20T06:00:14;101546.25;;;23.82;50.61
77725;BME280;66892;53.236;6.550;2023-07-20T06:02:40;101543.94;;;24.11;49.99
77725;BME280;66892;53.236;6.550;2023-07-20T06:05:08;101545.44;;;24.36;49.26
77725;BME280;66892;53.236;6.550;2023-07-20T06:07:38;101553.25;;;24.78;48.46
77725;BME280;66892;53.236;6.550;2023-07-20T06:10:05;101547.53;;;25.18;46.98
77725;BME280;66892;53.236;6.550;2023-07-20T06:12:34;101545.28;;;25.60;45.20
77725;BME280;66892;53.236;6.550;2023-07-20T06:15:03;101540.00;;;25.75;43.69
77725;BME280;66892;53.236;6.550;2023-07-20T06:17:30;101547.28;;;25.90;43.46
77725;BME280;66892;53.236;6.550;2023-07-20T06:19:56;101546.19;;;25.77;41.77
77725;BME280;66892;53.236;6.550;2023-07-20T06:22:24;101547.34;;;25.88;42.31
77725;BME280;66892;53.236;6.550;2023-07-20T06:24:50;101551.81;;;25.89;41.34
77725;BME280;66892;53.236;6.550;2023-07-20T06:27:16;101550.31;;;26.16;41.30
77725;BME280;66892;53.236;6.550;2023-07-20T06:29:42;101554.22;;;26.27;39.82
77725;BME280;66892;53.236;6.550;2023-07-20T06:32:08;101559.13;;;26.36;40.37
77725;BME280;66892;53.236;6.550;2023-07-20T06:34:34;101563.69;;;26.35;40.69
77725;BME280;66892;53.236;6.550;2023-07-20T06:37:04;101552.81;;;26.51;40.26
77725;BME280;66892;53.236;6.550;2023-07-20T06:39:31;101556.78;;;26.91;39.66
77725;BME280;66892;53.236;6.550;2023-07-20T06:41:57;101559.97;;;27.13;38.84
77725;BME280;66892;53.236;6.550;2023-07-20T06:44:24;101557.91;;;27.46;37.82
77725;BME280;66892;53.236;6.550;2023-07-20T06:46:50;101559.69;;;27.17;38.71
77725;BME280;66892;53.236;6.550;2023-07-20T06:49:24;101568.75;;;25.77;41.56
77725;BME280;66892;53.236;6.550;2023-07-20T06:51:50;101568.75;;;24.01;45.63
77725;BME280;66892;53.236;6.550;2023-07-20T06:54:16;101573.06;;;22.85;49.00
77725;BME280;66892;53.236;6.550;2023-07-20T06:56:44;101564.53;;;22.74;49.80
77725;BME280;66892;53.236;6.550;2023-07-20T06:59:10;101562.78;;;24.13;46.94
77725;BME280;66892;53.236;6.550;2023-07-20T07:01:36;101570.94;;;25.02;43.76
77725;BME280;66892;53.236;6.550;2023-07-20T07:04:02;101578.66;;;24.92;41.98
77725;BME280;66892;53.236;6.550;2023-07-20T07:06:29;101570.16;;;25.51;39.44
77725;BME280;66892;53.236;6.550;2023-07-20T07:08:55;101565.34;;;25.89;37.59
77725;BME280;66892;53.236;6.550;2023-07-20T07:11:21;101574.03;;;26.11;37.72
77725;BME280;66892;53.236;6.550;2023-07-20T07:13:49;101572.03;;;26.78;36.70
77725;BME280;66892;53.236;6.550;2023-07-20T07:16:17;101576.66;;;26.76;35.69
77725;BME280;66892;53.236;6.550;2023-07-20T07:18:44;101583.94;;;26.75;34.99
77725;BME280;66892;53.236;6.550;2023-07-20T07:21:10;101579.84;;;26.68;36.01
77725;BME280;66892;53.236;6.550;2023-07-20T07:23:37;101588.72;;;27.31;35.52
77725;BME280;66892;53.236;6.550;2023-07-20T07:26:04;101582.41;;;28.17;34.50
77725;BME280;66892;53.236;6.550;2023-07-20T07:28:30;101581.50;;;28.98;32.31
77725;BME280;66892;53.236;6.550;2023-07-20T07:30:59;101574.31;;;29.37;32.00
77725;BME280;66892;53.236;6.550;2023-07-20T07:33:25;101581.22;;;27.20;35.42
77725;BME280;66892;53.236;6.550;2023-07-20T07:35:51;101585.69;;;24.96;39.47
77725;BME280;66892;53.236;6.550;2023-07-20T07:38:18;101583.81;;;23.07;43.58
77725;BME280;66892;53.236;6.550;2023-07-20T07:40:44;101595.16;;;21.82;47.60
77725;BME280;66892;53.236;6.550;2023-07-20T07:43:10;101595.00;;;23.38;43.46
77725;BME280;66892;53.236;6.550;2023-07-20T07:45:36;101588.06;;;25.37;40.40
77725;BME280;66892;53.236;6.550;2023-07-20T07:48:05;101591.28;;;26.73;36.56
77725;BME280;66892;53.236;6.550;2023-07-20T07:50:31;101591.81;;;27.69;34.98
77725;BME280;66892;53.236;6.550;2023-07-20T07:52:57;101592.28;;;28.04;33.54
77725;BME280;66892;53.236;6.550;2023-07-20T07:55:24;101599.91;;;27.11;34.97
77725;BME280;66892;53.236;6.550;2023-07-20T07:57:50;101603.03;;;25.09;36.93
77725;BME280;66892;53.236;6.550;2023-07-20T08:00:17;101602.50;;;24.48;39.37
77725;BME280;66892;53.236;6.550;2023-07-20T08:02:45;101595.44;;;26.49;36.00
77725;BME280;66892;53.236;6.550;2023-07-20T08:05:14;101607.09;;;27.12;34.22
77725;BME280;66892;53.236;6.550;2023-07-20T08:07:40;101603.94;;;27.63;33.33
77725;BME280;66892;53.236;6.550;2023-07-20T08:10:07;101610.94;;;27.67;33.61
77725;BME280;66892;53.236;6.550;2023-07-20T08:12:34;101618.03;;;25.51;36.54
77725;BME280;66892;53.236;6.550;2023-07-20T08:15:00;101618.31;;;23.81;39.85
77725;BME280;66892;53.236;6.550;2023-07-20T08:17:26;101608.50;;;23.38;41.35
77725;BME280;66892;53.236;6.550;2023-07-20T08:19:52;101614.00;;;24.16;39.87
77725;BME280;66892;53.236;6.550;2023-07-20T08:22:20;101608.22;;;23.46;41.09
77725;BME280;66892;53.236;6.550;2023-07-20T08:24:46;101615.78;;;24.72;36.88
77725;BME280;66892;53.236;6.550;2023-07-20T08:27:12;101606.28;;;26.49;34.48
77725;BME280;66892;53.236;6.550;2023-07-20T08:29:38;101605.00;;;28.03;31.88
77725;BME280;66892;53.236;6.550;2023-07-20T08:32:05;101599.63;;;29.12;29.53
77725;BME280;66892;53.236;6.550;2023-07-20T08:34:32;101608.50;;;28.48;31.11
77725;BME280;66892;53.236;6.550;2023-07-20T08:36:58;101610.69;;;27.12;33.13
77725;BME280;66892;53.236;6.550;2023-07-20T08:39:26;101619.53;;;25.39;35.76
77725;BME280;66892;53.236;6.550;2023-07-20T08:41:52;101625.81;;;23.75;37.81
77725;BME280;66892;53.236;6.550;2023-07-20T08:44:18;101619.19;;;22.99;39.48
77725;BME280;66892;53.236;6.550;2023-07-20T08:46:44;101618.97;;;25.15;36.01
77725;BME280;66892;53.236;6.550;2023-07-20T08:49:11;101606.84;;;27.31;33.27
77725;BME280;66892;53.236;6.550;2023-07-20T08:51:38;101617.22;;;27.54;31.97
77725;BME280;66892;53.236;6.550;2023-07-20T08:54:06;101622.28;;;25.89;33.71
77725;BME280;66892;53.236;6.550;2023-07-20T08:56:33;101618.09;;;24.79;35.73
77725;BME280;66892;53.236;6.550;2023-07-20T08:59:01;101617.13;;;26.33;34.37
77725;BME280;66892;53.236;6.550;2023-07-20T09:01:28;101611.25;;;27.77;31.39
77725;BME280;66892;53.236;6.550;2023-07-20T09:03:55;101622.63;;;29.20;30.18
77725;BME280;66892;53.236;6.550;2023-07-20T09:06:22;101621.53;;;30.00;27.31
77725;BME280;66892;53.236;6.550;2023-07-20T09:08:48;101626.31;;;29.71;27.82
77725;BME280;66892;53.236;6.550;2023-07-20T09:11:14;101611.41;;;30.15;26.50
77725;BME280;66892;53.236;6.550;2023-07-20T09:13:42;101612.66;;;30.71;26.24
77725;BME280;66892;53.236;6.550;2023-07-20T09:16:08;101601.94;;;31.39;25.78
77725;BME280;66892;53.236;6.550;2023-07-20T09:18:38;101618.22;;;31.98;25.33
77725;BME280;66892;53.236;6.550;2023-07-20T09:21:05;101621.84;;;32.31;25.08
77725;BME280;66892;53.236;6.550;2023-07-20T09:23:32;101623.19;;;30.64;26.44
77725;BME280;66892;53.236;6.550;2023-07-20T09:25:59;101623.75;;;27.80;30.47
77725;BME280;66892;53.236;6.550;2023-07-20T09:28:25;101634.44;;;25.13;35.22
77725;BME280;66892;53.236;6.550;2023-07-20T09:30:53;101635.22;;;23.46;39.00
77725;BME280;66892;53.236;6.550;2023-07-20T09:33:21;101637.41;;;23.36;40.06
77725;BME280;66892;53.236;6.550;2023-07-20T09:35:47;101636.56;;;25.41;36.49
77725;BME280;66892;53.236;6.550;2023-07-20T09:38:14;101626.13;;;27.26;32.51
77725;BME280;66892;53.236;6.550;2023-07-20T09:40:41;101617.16;;;29.08;29.66
77725;BME280;66892;53.236;6.550;2023-07-20T09:43:08;101619.50;;;28.18;31.17
77725;BME280;66892;53.236;6.550;2023-07-20T09:45:35;101629.53;;;26.37;34.20
77725;BME280;66892;53.236;6.550;2023-07-20T09:48:07;101629.63;;;24.28;37.13
77725;BME280;66892;53.236;6.550;2023-07-20T09:50:34;101635.69;;;23.14;39.65
77725;BME280;66892;53.236;6.550;2023-07-20T09:53:05;101638.22;;;22.06;42.49
77725;BME280;66892;53.236;6.550;2023-07-20T09:55:32;101639.41;;;21.50;44.48
77725;BME280;66892;53.236;6.550;2023-07-20T09:58:00;101633.91;;;23.54;39.32
77725;BME280;66892;53.236;6.550;2023-07-20T10:00:26;101624.44;;;25.83;34.42
77725;BME280;66892;53.236;6.550;2023-07-20T10:02:53;101623.25;;;27.29;32.25
77725;BME280;66892;53.236;6.550;2023-07-20T10:05:24;101621.34;;;28.32;30.43
77725;BME280;66892;53.236;6.550;2023-07-20T10:07:53;101616.47;;;27.36;32.32
77725;BME280;66892;53.236;6.550;2023-07-20T10:10:19;101617.06;;;26.02;33.95
77725;BME280;66892;53.236;6.550;2023-07-20T10:12:48;101625.09;;;24.29;37.83
77725;BME280;66892;53.236;6.550;2023-07-20T10:15:19;101632.03;;;22.73;40.66
77725;BME280;66892;53.236;6.550;2023-07-20T10:17:53;101630.38;;;23.32;40.42
77725;BME280;66892;53.236;6.550;2023-07-20T10:20:20;101625.50;;;25.63;36.13
77725;BME280;66892;53.236;6.550;2023-07-20T10:22:52;101624.72;;;25.61;33.97
77725;BME280;66892;53.236;6.550;2023-07-20T10:25:20;101622.19;;;24.33;36.34
77725;BME280;66892;53.236;6.550;2023-07-20T10:27:48;101622.56;;;23.67;37.81
77725;BME280;66892;53.236;6.550;2023-07-20T10:30:14;101621.41;;;24.67;35.99
77725;BME280;66892;53.236;6.550;2023-07-20T10:32:41;101620.34;;;25.58;35.06
77725;BME280;66892;53.236;6.550;2023-07-20T10:35:12;101618.94;;;26.17;33.18
77725;BME280;66892;53.236;6.550;2023-07-20T10:37:51;101621.91;;;27.06;31.40
77725;BME280;66892;53.236;6.550;2023-07-20T10:40:28;101611.88;;;27.52;29.63
77725;BME280;66892;53.236;6.550;2023-07-20T10:42:57;101611.25;;;28.19;29.37
77725;BME280;66892;53.236;6.550;2023-07-20T10:45:36;101622.50;;;27.11;31.63
77725;BME280;66892;53.236;6.550;2023-07-20T10:48:04;101610.91;;;26.94;31.79
77725;BME280;66892;53.236;6.550;2023-07-20T10:50:32;101620.75;;;27.70;31.08
77725;BME280;66892;53.236;6.550;2023-07-20T10:53:10;101614.16;;;26.85;31.77
77725;BME280;66892;53.236;6.550;2023-07-20T10:55:36;101614.75;;;25.10;34.70
77725;BME280;66892;53.236;6.550;2023-07-20T10:58:12;101610.84;;;24.80;35.27
77725;BME280;66892;53.236;6.550;2023-07-20T11:01:00;101617.53;;;24.91;36.11
77725;BME280;66892;53.236;6.550;2023-07-20T11:03:28;101614.94;;;24.52;35.71
77725;BME280;66892;53.236;6.550;2023-07-20T11:05:55;101618.13;;;25.82;33.70
77725;BME280;66892;53.236;6.550;2023-07-20T11:08:41;101616.34;;;26.47;32.00
77725;BME280;66892;53.236;6.550;2023-07-20T11:11:23;101611.47;;;27.14;30.27
77725;BME280;66892;53.236;6.550;2023-07-20T11:13:57;101605.63;;;27.80;30.16
77725;BME280;66892;53.236;6.550;2023-07-20T11:16:38;101605.91;;;27.90;29.57
77725;BME280;66892;53.236;6.550;2023-07-20T11:19:05;101606.69;;;28.20;28.98
77725;BME280;66892;53.236;6.550;2023-07-20T11:21:36;101610.56;;;28.02;29.14
77725;BME280;66892;53.236;6.550;2023-07-20T11:24:05;101610.69;;;28.14;29.19
77725;BME280;66892;53.236;6.550;2023-07-20T11:26:40;101609.19;;;27.81;30.36
77725;BME280;66892;53.236;6.550;2023-07-20T11:29:06;101596.56;;;27.94;30.66
77725;BME280;66892;53.236;6.550;2023-07-20T11:31:35;101594.34;;;27.28;31.12
77725;BME280;66892;53.236;6.550;2023-07-20T11:34:01;101593.09;;;27.04;31.42
77725;BME280;66892;53.236;6.550;2023-07-20T11:36:27;101597.03;;;26.04;33.15
77725;BME280;66892;53.236;6.550;2023-07-20T11:38:53;101595.28;;;24.66;36.06
77725;BME280;66892;53.236;6.550;2023-07-20T11:41:21;101593.66;;;24.81;35.23
77725;BME280;66892;53.236;6.550;2023-07-20T11:43:47;101587.66;;;25.27;33.73
77725;BME280;66892;53.236;6.550;2023-07-20T11:46:13;101596.09;;;25.73;34.05
77725;BME280;66892;53.236;6.550;2023-07-20T11:48:39;101589.47;;;26.27;33.85
77725;BME280;66892;53.236;6.550;2023-07-20T11:51:05;101596.13;;;26.52;32.83
77725;BME280;66892;53.236;6.550;2023-07-20T11:53:32;101586.25;;;26.36;33.14
77725;BME280;66892;53.236;6.550;2023-07-20T11:56:00;101596.41;;;26.16;33.15
77725;BME280;66892;53.236;6.550;2023-07-20T11:58:28;101594.69;;;25.31;34.47
77725;BME280;66892;53.236;6.550;2023-07-20T12:00:54;101593.56;;;25.01;35.91
77725;BME280;66892;53.236;6.550;2023-07-20T12:03:20;101586.25;;;24.67;35.61
77725;BME280;66892;53.236;6.550;2023-07-20T12:05:46;101601.66;;;23.90;37.20
77725;BME280;66892;53.236;6.550;2023-07-20T12:08:12;101599.19;;;23.47;38.44
77725;BME280;66892;53.236;6.550;2023-07-20T12:10:39;101587.19;;;23.12;39.01
77725;BME280;66892;53.236;6.550;2023-07-20T12:13:10;101592.78;;;22.66;40.83
77725;BME280;66892;53.236;6.550;2023-07-20T12:15:38;101593.16;;;22.12;41.77
77725;BME280;66892;53.236;6.550;2023-07-20T12:18:05;101598.97;;;21.76;41.97
77725;BME280;66892;53.236;6.550;2023-07-20T12:20:32;101592.50;;;21.57;43.20
77725;BME280;66892;53.236;6.550;2023-07-20T12:23:00;101587.56;;;21.45;42.67
77725;BME280;66892;53.236;6.550;2023-07-20T12:25:36;101593.88;;;21.44;43.14
77725;BME280;66892;53.236;6.550;2023-07-20T12:28:04;101590.91;;;21.27;43.12
77725;BME280;66892;53.236;6.550;2023-07-20T12:30:30;101588.00;;;21.33;44.07
77725;BME280;66892;53.236;6.550;2023-07-20T12:32:58;101600.41;;;21.37;43.57
77725;BME280;66892;53.236;6.550;2023-07-20T12:35:24;101599.66;;;21.33;43.86
77725;BME280;66892;53.236;6.550;2023-07-20T12:37:50;101598.84;;;21.31;44.09
77725;BME280;66892;53.236;6.550;2023-07-20T12:40:17;101592.69;;;21.28;44.69
77725;BME280;66892;53.236;6.550;2023-07-20T12:42:43;101616.16;;;21.23;45.80
77725;BME280;66892;53.236;6.550;2023-07-20T12:45:10;101600.31;;;20.87;51.44
77725;BME280;66892;53.236;6.550;2023-07-20T12:47:37;101602.44;;;20.52;54.81